sensor_id;sensor_type;location;lat;lon;timestamp;P1;durP1;ratioP1;P2;durP2;ratioP2
62554;SDS011;48610;52.144;8.624;2023-05-07T00:01:16;43.38;;;22.92;;
62554;SDS011;48610;52.144;8.624;2023-05-07T00:04:17;43.50;;;22.90;;
62554;SDS011;48610;52.144;8.624;2023-05-07T00:07:17;40.22;;;21.27;;
62554;SDS011;48610;52.144;8.624;2023-05-07T00:10:18;36.83;;;21.05;;
62554;SDS011;48610;52.144;8.624;2023-05-07T00:13:19;41.08;;;23.00;;
62554;SDS011;48610;52.144;8.624;2023-05-07T00:16:19;45.25;;;21.15;;
62554;SDS011;48610;52.144;8.624;2023-05-07T00:19:20;44.83;;;22.90;;
62554;SDS011;48610;52.144;8.624;2023-05-07T00:22:21;38.75;;;21.50;;
62554;SDS011;48610;52.144;8.624;2023-05-07T00:25:21;42.40;;;22.40;;
62554;SDS011;48610;52.144;8.624;2023-05-07T00:28:22;49.50;;;24.17;;
62554;SDS011;48610;52.144;8.624;2023-05-07T00:31:22;42.58;;;22.92;;
62554;SDS011;48610;52.144;8.624;2023-05-07T00:34:23;45.30;;;22.77;;
62554;SDS011;48610;52.144;8.624;2023-05-07T00:37:24;40.05;;;21.98;;
62554;SDS011;48610;52.144;8.624;2023-05-07T00:40:25;39.50;;;21.60;;
62554;SDS011;48610;52.144;8.624;2023-05-07T00:43:25;44.42;;;22.75;;
62554;SDS011;48610;52.144;8.624;2023-05-07T00:46:27;44.33;;;23.20;;
62554;SDS011;48610;52.144;8.624;2023-05-07T00:49:38;45.63;;;23.42;;
62554;SDS011;48610;52.144;8.624;2023-05-07T00:52:41;43.88;;;23.13;;
62554;SDS011;48610;52.144;8.624;2023-05-07T00:55:42;43.08;;;23.17;;
62554;SDS011;48610;52.144;8.624;2023-05-07T00:58:42;44.83;;;22.75;;
62554;SDS011;48610;52.144;8.624;2023-05-07T01:01:43;44.90;;;23.10;;
62554;SDS011;48610;52.144;8.624;2023-05-07T01:04:44;72.63;;;23.98;;
62554;SDS011;48610;52.144;8.624;2023-05-07T01:07:45;47.78;;;23.25;;
62554;SDS011;48610;52.144;8.624;2023-05-07T01:10:47;47.00;;;23.65;;
62554;SDS011;48610;52.144;8.624;2023-05-07T01:13:48;50.65;;;22.50;;
62554;SDS011;48610;52.144;8.624;2023-05-07T01:16:50;41.42;;;23.60;;
62554;SDS011;48610;52.144;8.624;2023-05-07T01:19:51;46.15;;;23.45;;
62554;SDS011;48610;52.144;8.624;2023-05-07T01:22:53;42.72;;;24.17;;
62554;SDS011;48610;52.144;8.624;2023-05-07T01:25:54;45.60;;;23.50;;
62554;SDS011;48610;52.144;8.624;2023-05-07T01:28:54;42.35;;;22.73;;
62554;SDS011;48610;52.144;8.624;2023-05-07T01:31:59;56.20;;;23.63;;
62554;SDS011;48610;52.144;8.624;2023-05-07T01:35:01;40.50;;;22.15;;
62554;SDS011;48610;52.144;8.624;2023-05-07T01:38:05;37.70;;;23.35;;
62554;SDS011;48610;52.144;8.624;2023-05-07T01:41:06;49.65;;;22.88;;
62554;SDS011;48610;52.144;8.624;2023-05-07T01:44:07;45.80;;;22.95;;
62554;SDS011;48610;52.144;8.624;2023-05-07T01:47:10;38.88;;;22.98;;
62554;SDS011;48610;52.144;8.624;2023-05-07T01:50:11;46.45;;;24.60;;
62554;SDS011;48610;52.144;8.624;2023-05-07T01:53:12;40.50;;;22.67;;
62554;SDS011;48610;52.144;8.624;2023-05-07T01:56:13;49.00;;;23.50;;
62554;SDS011;48610;52.144;8.624;2023-05-07T01:59:13;42.55;;;22.13;;
62554;SDS011;48610;52.144;8.624;2023-05-07T02:02:14;43.08;;;22.85;;
62554;SDS011;48610;52.144;8.624;2023-05-07T02:05:15;40.95;;;22.02;;
62554;SDS011;48610;52.144;8.624;2023-05-07T02:08:15;45.97;;;23.55;;
62554;SDS011;48610;52.144;8.624;2023-05-07T02:11:16;49.75;;;23.48;;
62554;SDS011;48610;52.144;8.624;2023-05-07T02:14:17;48.38;;;22.98;;
62554;SDS011;48610;52.144;8.624;2023-05-07T02:17:17;39.63;;;21.80;;
62554;SDS011;48610;52.144;8.624;2023-05-07T02:20:18;45.45;;;22.95;;
62554;SDS011;48610;52.144;8.624;2023-05-07T02:23:19;46.95;;;23.02;;
62554;SDS011;48610;52.144;8.624;2023-05-07T02:26:19;43.00;;;24.00;;
62554;SDS011;48610;52.144;8.624;2023-05-07T02:29:21;43.45;;;21.85;;
62554;SDS011;48610;52.144;8.624;2023-05-07T02:32:21;41.47;;;22.00;;
62554;SDS011;48610;52.144;8.624;2023-05-07T02:35:23;51.10;;;23.40;;
62554;SDS011;48610;52.144;8.624;2023-05-07T02:38:24;42.53;;;23.30;;
62554;SDS011;48610;52.144;8.624;2023-05-07T02:41:25;43.35;;;22.88;;
62554;SDS011;48610;52.144;8.624;2023-05-07T02:44:26;41.42;;;22.98;;
62554;SDS011;48610;52.144;8.624;2023-05-07T02:47:26;54.65;;;23.98;;
62554;SDS011;48610;52.144;8.624;2023-05-07T02:50:28;46.83;;;23.80;;
62554;SDS011;48610;52.144;8.624;2023-05-07T02:53:28;44.10;;;22.90;;
62554;SDS011;48610;52.144;8.624;2023-05-07T02:56:29;42.30;;;21.80;;
62554;SDS011;48610;52.144;8.624;2023-05-07T02:59:30;45.53;;;23.88;;
62554;SDS011;48610;52.144;8.624;2023-05-07T03:02:30;43.47;;;22.65;;
62554;SDS011;48610;52.144;8.624;2023-05-07T03:05:31;54.97;;;24.15;;
62554;SDS011;48610;52.144;8.624;2023-05-07T03:08:32;48.53;;;24.65;;
62554;SDS011;48610;52.144;8.624;2023-05-07T03:11:32;41.58;;;24.10;;
62554;SDS011;48610;52.144;8.624;2023-05-07T03:14:33;42.60;;;24.27;;
62554;SDS011;48610;52.144;8.624;2023-05-07T03:17:34;56.35;;;24.83;;
62554;SDS011;48610;52.144;8.624;2023-05-07T03:20:34;43.88;;;22.90;;
62554;SDS011;48610;52.144;8.624;2023-05-07T03:23:36;48.67;;;23.88;;
62554;SDS011;48610;52.144;8.624;2023-05-07T03:26:37;45.28;;;24.92;;
62554;SDS011;48610;52.144;8.624;2023-05-07T03:29:37;49.60;;;24.20;;
62554;SDS011;48610;52.144;8.624;2023-05-07T03:32:38;51.42;;;25.33;;
62554;SDS011;48610;52.144;8.624;2023-05-07T03:35:38;49.88;;;23.58;;
62554;SDS011;48610;52.144;8.624;2023-05-07T03:38:39;47.45;;;23.58;;
62554;SDS011;48610;52.144;8.624;2023-05-07T03:41:40;46.53;;;25.17;;
62554;SDS011;48610;52.144;8.624;2023-05-07T03:44:40;51.10;;;26.88;;
62554;SDS011;48610;52.144;8.624;2023-05-07T03:47:41;47.60;;;23.67;;
62554;SDS011;48610;52.144;8.624;2023-05-07T03:50:41;49.00;;;24.98;;
62554;SDS011;48610;52.144;8.624;2023-05-07T03:53:42;46.45;;;25.10;;
62554;SDS011;48610;52.144;8.624;2023-05-07T03:56:43;49.22;;;24.98;;
62554;SDS011;48610;52.144;8.624;2023-05-07T03:59:43;55.97;;;25.30;;
62554;SDS011;48610;52.144;8.624;2023-05-07T04:02:44;50.05;;;25.40;;
62554;SDS011;48610;52.144;8.624;2023-05-07T04:05:45;49.60;;;25.25;;
62554;SDS011;48610;52.144;8.624;2023-05-07T04:08:45;46.65;;;24.83;;
62554;SDS011;48610;52.144;8.624;2023-05-07T04:11:46;47.67;;;26.02;;
62554;SDS011;48610;52.144;8.624;2023-05-07T04:14:46;50.15;;;26.60;;
62554;SDS011;48610;52.144;8.624;2023-05-07T04:17:47;51.28;;;25.15;;
62554;SDS011;48610;52.144;8.624;2023-05-07T04:20:48;46.72;;;24.75;;
62554;SDS011;48610;52.144;8.624;2023-05-07T04:23:49;54.08;;;26.55;;
62554;SDS011;48610;52.144;8.624;2023-05-07T04:26:50;54.35;;;26.85;;
62554;SDS011;48610;52.144;8.624;2023-05-07T04:29:51;51.53;;;25.63;;
62554;SDS011;48610;52.144;8.624;2023-05-07T04:32:52;51.95;;;25.67;;
62554;SDS011;48610;52.144;8.624;2023-05-07T04:35:53;54.28;;;26.58;;
62554;SDS011;48610;52.144;8.624;2023-05-07T04:38:53;48.53;;;26.10;;
62554;SDS011;48610;52.144;8.624;2023-05-07T04:41:54;50.80;;;25.05;;
62554;SDS011;48610;52.144;8.624;2023-05-07T04:44:54;48.53;;;26.33;;
62554;SDS011;48610;52.144;8.624;2023-05-07T04:47:55;49.30;;;26.58;;
62554;SDS011;48610;52.144;8.624;2023-05-07T04:50:56;53.55;;;27.83;;
62554;SDS011;48610;52.144;8.624;2023-05-07T04:53:56;48.88;;;25.33;;
62554;SDS011;48610;52.144;8.624;2023-05-07T04:56:57;50.63;;;25.40;;
62554;SDS011;48610;52.144;8.624;2023-05-07T04:59:57;51.47;;;25.58;;
62554;SDS011;48610;52.144;8.624;2023-05-07T05:02:58;44.47;;;24.88;;
62554;SDS011;48610;52.144;8.624;2023-05-07T05:05:58;50.10;;;25.83;;
62554;SDS011;48610;52.144;8.624;2023-05-07T05:08:59;56.00;;;26.50;;
62554;SDS011;48610;52.144;8.624;2023-05-07T05:12:00;55.13;;;26.30;;
62554;SDS011;48610;52.144;8.624;2023-05-07T05:15:02;53.72;;;26.00;;
62554;SDS011;48610;52.144;8.624;2023-05-07T05:18:02;50.85;;;26.67;;
62554;SDS011;48610;52.144;8.624;2023-05-07T05:21:03;49.90;;;25.67;;
62554;SDS011;48610;52.144;8.624;2023-05-07T05:24:04;53.40;;;26.88;;
62554;SDS011;48610;52.144;8.624;2023-05-07T05:27:04;52.72;;;25.77;;
62554;SDS011;48610;52.144;8.624;2023-05-07T05:30:05;44.42;;;24.35;;
62554;SDS011;48610;52.144;8.624;2023-05-07T05:33:06;54.00;;;27.02;;
62554;SDS011;48610;52.144;8.624;2023-05-07T05:36:09;57.22;;;27.33;;
62554;SDS011;48610;52.144;8.624;2023-05-07T05:39:09;51.95;;;25.40;;
62554;SDS011;48610;52.144;8.624;2023-05-07T05:42:10;51.88;;;25.65;;
62554;SDS011;48610;52.144;8.624;2023-05-07T05:45:10;57.92;;;26.25;;
62554;SDS011;48610;52.144;8.624;2023-05-07T05:48:11;51.80;;;25.50;;
62554;SDS011;48610;52.144;8.624;2023-05-07T05:51:12;47.83;;;24.83;;
62554;SDS011;48610;52.144;8.624;2023-05-07T05:54:12;56.35;;;25.70;;
62554;SDS011;48610;52.144;8.624;2023-05-07T05:57:13;47.65;;;25.35;;
62554;SDS011;48610;52.144;8.624;2023-05-07T06:00:13;56.22;;;25.13;;
62554;SDS011;48610;52.144;8.624;2023-05-07T06:03:14;49.03;;;24.83;;
62554;SDS011;48610;52.144;8.624;2023-05-07T06:06:15;49.83;;;25.75;;
62554;SDS011;48610;52.144;8.624;2023-05-07T06:09:15;61.47;;;26.33;;
62554;SDS011;48610;52.144;8.624;2023-05-07T06:12:16;48.78;;;24.63;;
62554;SDS011;48610;52.144;8.624;2023-05-07T06:15:17;49.72;;;22.35;;
62554;SDS011;48610;52.144;8.624;2023-05-07T06:18:17;49.40;;;23.98;;
62554;SDS011;48610;52.144;8.624;2023-05-07T06:21:18;37.13;;;16.25;;
62554;SDS011;48610;52.144;8.624;2023-05-07T06:24:18;46.65;;;23.55;;
62554;SDS011;48610;52.144;8.624;2023-05-07T06:27:19;43.30;;;23.52;;
62554;SDS011;48610;52.144;8.624;2023-05-07T06:30:20;44.50;;;23.27;;
62554;SDS011;48610;52.144;8.624;2023-05-07T06:33:20;51.80;;;22.25;;
62554;SDS011;48610;52.144;8.624;2023-05-07T06:36:21;42.83;;;22.45;;
62554;SDS011;48610;52.144;8.624;2023-05-07T06:39:21;46.90;;;19.65;;
62554;SDS011;48610;52.144;8.624;2023-05-07T06:42:22;43.35;;;21.85;;
62554;SDS011;48610;52.144;8.624;2023-05-07T06:45:23;47.13;;;22.67;;
62554;SDS011;48610;52.144;8.624;2023-05-07T06:48:25;44.47;;;21.75;;
62554;SDS011;48610;52.144;8.624;2023-05-07T06:51:25;45.60;;;22.98;;
62554;SDS011;48610;52.144;8.624;2023-05-07T06:54:26;49.22;;;21.73;;
62554;SDS011;48610;52.144;8.624;2023-05-07T06:57:27;40.25;;;20.83;;
62554;SDS011;48610;52.144;8.624;2023-05-07T07:00:28;49.95;;;22.40;;
62554;SDS011;48610;52.144;8.624;2023-05-07T07:03:28;40.95;;;21.38;;
62554;SDS011;48610;52.144;8.624;2023-05-07T07:06:29;45.00;;;21.75;;
62554;SDS011;48610;52.144;8.624;2023-05-07T07:09:31;46.03;;;21.73;;
62554;SDS011;48610;52.144;8.624;2023-05-07T07:12:32;42.70;;;19.60;;
62554;SDS011;48610;52.144;8.624;2023-05-07T07:15:32;33.17;;;18.25;;
62554;SDS011;48610;52.144;8.624;2023-05-07T07:18:33;42.63;;;20.30;;
62554;SDS011;48610;52.144;8.624;2023-05-07T07:21:34;44.40;;;21.88;;
62554;SDS011;48610;52.144;8.624;2023-05-07T07:24:34;47.38;;;20.02;;
62554;SDS011;48610;52.144;8.624;2023-05-07T07:27:35;37.63;;;19.83;;
62554;SDS011;48610;52.144;8.624;2023-05-07T07:30:36;36.33;;;18.50;;
62554;SDS011;48610;52.144;8.624;2023-05-07T07:33:37;34.63;;;18.02;;
62554;SDS011;48610;52.144;8.624;2023-05-07T07:36:38;28.77;;;15.30;;
62554;SDS011;48610;52.144;8.624;2023-05-07T07:39:39;34.75;;;18.13;;
62554;SDS011;48610;52.144;8.624;2023-05-07T07:42:39;34.80;;;18.45;;
62554;SDS011;48610;52.144;8.624;2023-05-07T07:45:40;33.45;;;16.90;;
62554;SDS011;48610;52.144;8.624;2023-05-07T07:48:41;33.70;;;17.08;;
62554;SDS011;48610;52.144;8.624;2023-05-07T07:51:42;32.80;;;18.67;;
62554;SDS011;48610;52.144;8.624;2023-05-07T07:54:42;30.17;;;17.55;;
62554;SDS011;48610;52.144;8.624;2023-05-07T07:57:43;32.92;;;18.60;;
62554;SDS011;48610;52.144;8.624;2023-05-07T08:00:44;31.98;;;16.50;;
62554;SDS011;48610;52.144;8.624;2023-05-07T08:03:44;34.83;;;17.08;;
62554;SDS011;48610;52.144;8.624;2023-05-07T08:06:45;33.28;;;16.52;;
62554;SDS011;48610;52.144;8.624;2023-05-07T08:09:46;35.50;;;16.45;;
62554;SDS011;48610;52.144;8.624;2023-05-07T08:12:48;31.80;;;16.23;;
62554;SDS011;48610;52.144;8.624;2023-05-07T08:15:49;27.90;;;16.30;;
62554;SDS011;48610;52.144;8.624;2023-05-07T08:18:50;24.85;;;14.10;;
62554;SDS011;48610;52.144;8.624;2023-05-07T08:21:50;29.83;;;15.75;;
62554;SDS011;48610;52.144;8.624;2023-05-07T08:24:51;27.20;;;14.95;;
62554;SDS011;48610;52.144;8.624;2023-05-07T08:27:53;25.55;;;14.15;;
62554;SDS011;48610;52.144;8.624;2023-05-07T08:30:54;23.00;;;11.38;;
62554;SDS011;48610;52.144;8.624;2023-05-07T08:33:57;24.50;;;12.55;;
62554;SDS011;48610;52.144;8.624;2023-05-07T08:36:58;23.73;;;13.43;;
62554;SDS011;48610;52.144;8.624;2023-05-07T08:39:58;17.10;;;10.57;;
62554;SDS011;48610;52.144;8.624;2023-05-07T08:42:59;22.48;;;11.60;;
62554;SDS011;48610;52.144;8.624;2023-05-07T08:46:00;16.63;;;9.07;;
62554;SDS011;48610;52.144;8.624;2023-05-07T08:49:02;12.82;;;7.03;;
62554;SDS011;48610;52.144;8.624;2023-05-07T08:52:03;21.88;;;12.15;;
62554;SDS011;48610;52.144;8.624;2023-05-07T08:55:03;22.70;;;12.52;;
62554;SDS011;48610;52.144;8.624;2023-05-07T08:58:05;20.73;;;11.90;;
62554;SDS011;48610;52.144;8.624;2023-05-07T09:01:09;11.57;;;7.13;;
62554;SDS011;48610;52.144;8.624;2023-05-07T09:04:13;16.98;;;10.73;;
62554;SDS011;48610;52.144;8.624;2023-05-07T09:07:13;16.27;;;9.88;;
62554;SDS011;48610;52.144;8.624;2023-05-07T09:10:14;15.40;;;7.53;;
62554;SDS011;48610;52.144;8.624;2023-05-07T09:13:15;17.92;;;9.70;;
62554;SDS011;48610;52.144;8.624;2023-05-07T09:16:18;12.02;;;6.88;;
62554;SDS011;48610;52.144;8.624;2023-05-07T09:19:22;12.90;;;9.05;;
62554;SDS011;48610;52.144;8.624;2023-05-07T09:22:24;17.08;;;9.75;;
62554;SDS011;48610;52.144;8.624;2023-05-07T09:25:31;16.10;;;9.52;;
62554;SDS011;48610;52.144;8.624;2023-05-07T09:28:32;15.30;;;8.82;;
62554;SDS011;48610;52.144;8.624;2023-05-07T09:31:36;15.02;;;8.55;;
62554;SDS011;48610;52.144;8.624;2023-05-07T09:34:37;14.05;;;8.90;;
62554;SDS011;48610;52.144;8.624;2023-05-07T09:37:38;15.55;;;8.77;;
62554;SDS011;48610;52.144;8.624;2023-05-07T09:40:41;14.35;;;8.32;;
62554;SDS011;48610;52.144;8.624;2023-05-07T09:43:42;13.55;;;9.13;;
62554;SDS011;48610;52.144;8.624;2023-05-07T09:46:43;20.40;;;9.57;;
62554;SDS011;48610;52.144;8.624;2023-05-07T09:49:46;13.18;;;8.10;;
62554;SDS011;48610;52.144;8.624;2023-05-07T09:52:48;13.93;;;7.68;;
62554;SDS011;48610;52.144;8.624;2023-05-07T09:55:49;15.68;;;7.25;;
62554;SDS011;48610;52.144;8.624;2023-05-07T09:58:51;15.85;;;9.35;;
62554;SDS011;48610;52.144;8.624;2023-05-07T10:01:54;15.25;;;9.55;;
62554;SDS011;48610;52.144;8.624;2023-05-07T10:04:58;14.27;;;8.95;;
62554;SDS011;48610;52.144;8.624;2023-05-07T10:08:00;14.43;;;8.55;;
62554;SDS011;48610;52.144;8.624;2023-05-07T10:11:01;14.02;;;9.15;;
62554;SDS011;48610;52.144;8.624;2023-05-07T10:14:03;19.60;;;7.40;;
62554;SDS011;48610;52.144;8.624;2023-05-07T10:17:07;12.80;;;7.47;;
62554;SDS011;48610;52.144;8.624;2023-05-07T10:20:09;17.90;;;8.75;;
62554;SDS011;48610;52.144;8.624;2023-05-07T10:23:10;13.52;;;8.68;;
62554;SDS011;48610;52.144;8.624;2023-05-07T10:26:14;11.73;;;7.85;;
62554;SDS011;48610;52.144;8.624;2023-05-07T10:35:29;13.05;;;7.85;;
62554;SDS011;48610;52.144;8.624;2023-05-07T10:38:32;11.90;;;7.18;;
62554;SDS011;48610;52.144;8.624;2023-05-07T10:41:34;13.02;;;7.60;;
62554;SDS011;48610;52.144;8.624;2023-05-07T10:44:34;12.48;;;7.13;;
62554;SDS011;48610;52.144;8.624;2023-05-07T10:47:37;11.20;;;6.93;;
62554;SDS011;48610;52.144;8.624;2023-05-07T10:51:28;10.55;;;6.88;;
62554;SDS011;48610;52.144;8.624;2023-05-07T10:54:29;11.38;;;6.00;;
62554;SDS011;48610;52.144;8.624;2023-05-07T10:57:35;9.73;;;5.45;;
62554;SDS011;48610;52.144;8.624;2023-05-07T11:03:37;8.65;;;6.00;;
62554;SDS011;48610;52.144;8.624;2023-05-07T11:07:27;10.90;;;5.45;;
62554;SDS011;48610;52.144;8.624;2023-05-07T11:10:51;9.80;;;5.53;;
62554;SDS011;48610;52.144;8.624;2023-05-07T11:13:56;8.77;;;5.95;;
62554;SDS011;48610;52.144;8.624;2023-05-07T11:17:01;8.60;;;5.75;;
62554;SDS011;48610;52.144;8.624;2023-05-07T11:20:03;9.98;;;5.53;;
62554;SDS011;48610;52.144;8.624;2023-05-07T11:23:06;8.40;;;5.25;;
62554;SDS011;48610;52.144;8.624;2023-05-07T11:26:08;7.68;;;5.45;;
62554;SDS011;48610;52.144;8.624;2023-05-07T11:29:10;7.80;;;5.28;;
62554;SDS011;48610;52.144;8.624;2023-05-07T11:32:22;6.63;;;4.65;;
62554;SDS011;48610;52.144;8.624;2023-05-07T11:35:23;8.30;;;5.60;;
62554;SDS011;48610;52.144;8.624;2023-05-07T11:38:24;11.20;;;5.63;;
62554;SDS011;48610;52.144;8.624;2023-05-07T11:41:35;9.82;;;5.32;;
62554;SDS011;48610;52.144;8.624;2023-05-07T11:44:42;7.93;;;5.10;;
62554;SDS011;48610;52.144;8.624;2023-05-07T11:47:44;6.18;;;4.45;;
62554;SDS011;48610;52.144;8.624;2023-05-07T11:50:51;6.53;;;4.35;;
62554;SDS011;48610;52.144;8.624;2023-05-07T11:53:52;7.68;;;4.88;;
62554;SDS011;48610;52.144;8.624;2023-05-07T11:56:53;9.27;;;4.25;;
62554;SDS011;48610;52.144;8.624;2023-05-07T11:59:56;6.35;;;4.40;;
62554;SDS011;48610;52.144;8.624;2023-05-07T12:03:02;10.02;;;4.85;;
62554;SDS011;48610;52.144;8.624;2023-05-07T12:06:06;6.30;;;4.40;;
62554;SDS011;48610;52.144;8.624;2023-05-07T12:09:07;8.73;;;4.32;;
62554;SDS011;48610;52.144;8.624;2023-05-07T12:12:11;7.78;;;5.03;;
62554;SDS011;48610;52.144;8.624;2023-05-07T12:15:17;5.53;;;3.55;;
62554;SDS011;48610;52.144;8.624;2023-05-07T12:18:22;8.40;;;5.30;;
62554;SDS011;48610;52.144;8.624;2023-05-07T12:21:24;9.77;;;5.70;;
62554;SDS011;48610;52.144;8.624;2023-05-07T12:24:25;9.13;;;5.20;;
62554;SDS011;48610;52.144;8.624;2023-05-07T12:27:26;7.93;;;5.07;;
62554;SDS011;48610;52.144;8.624;2023-05-07T12:30:26;5.93;;;4.45;;
62554;SDS011;48610;52.144;8.624;2023-05-07T12:33:27;9.63;;;6.15;;
62554;SDS011;48610;52.144;8.624;2023-05-07T12:36:36;7.60;;;5.53;;
62554;SDS011;48610;52.144;8.624;2023-05-07T12:39:49;8.90;;;6.20;;
62554;SDS011;48610;52.144;8.624;2023-05-07T12:43:04;10.07;;;5.93;;
62554;SDS011;48610;52.144;8.624;2023-05-07T12:46:05;9.70;;;6.57;;
62554;SDS011;48610;52.144;8.624;2023-05-07T12:49:07;7.47;;;4.93;;
62554;SDS011;48610;52.144;8.624;2023-05-07T12:52:07;9.57;;;6.30;;
62554;SDS011;48610;52.144;8.624;2023-05-07T12:55:08;9.77;;;6.43;;
62554;SDS011;48610;52.144;8.624;2023-05-07T12:58:14;9.65;;;6.18;;
62554;SDS011;48610;52.144;8.624;2023-05-07T13:01:28;10.23;;;5.37;;
62554;SDS011;48610;52.144;8.624;2023-05-07T13:04:30;9.45;;;6.60;;
62554;SDS011;48610;52.144;8.624;2023-05-07T13:07:31;11.32;;;6.20;;
62554;SDS011;48610;52.144;8.624;2023-05-07T13:10:31;8.55;;;6.22;;
62554;SDS011;48610;52.144;8.624;2023-05-07T13:13:34;8.43;;;5.82;;
62554;SDS011;48610;52.144;8.624;2023-05-07T13:16:35;9.20;;;6.22;;
62554;SDS011;48610;52.144;8.624;2023-05-07T13:19:36;8.75;;;6.18;;
62554;SDS011;48610;52.144;8.624;2023-05-07T13:22:37;9.60;;;6.20;;
62554;SDS011;48610;52.144;8.624;2023-05-07T13:25:38;9.35;;;6.15;;
62554;SDS011;48610;52.144;8.624;2023-05-07T13:28:39;8.52;;;6.30;;
62554;SDS011;48610;52.144;8.624;2023-05-07T13:31:39;8.88;;;6.10;;
62554;SDS011;48610;52.144;8.624;2023-05-07T13:34:43;9.30;;;6.20;;
62554;SDS011;48610;52.144;8.624;2023-05-07T13:37:44;8.75;;;6.40;;
62554;SDS011;48610;52.144;8.624;2023-05-07T13:40:45;9.50;;;6.35;;
62554;SDS011;48610;52.144;8.624;2023-05-07T13:43:45;12.50;;;6.75;;
62554;SDS011;48610;52.144;8.624;2023-05-07T13:46:46;8.02;;;5.63;;
62554;SDS011;48610;52.144;8.624;2023-05-07T13:49:46;8.50;;;6.30;;
62554;SDS011;48610;52.144;8.624;2023-05-07T13:52:49;12.48;;;6.30;;
62554;SDS011;48610;52.144;8.624;2023-05-07T13:55:52;7.07;;;5.43;;
62554;SDS011;48610;52.144;8.624;2023-05-07T13:58:53;13.23;;;6.47;;
62554;SDS011;48610;52.144;8.624;2023-05-07T14:01:54;9.63;;;6.32;;
62554;SDS011;48610;52.144;8.624;2023-05-07T14:04:54;8.70;;;6.55;;
62554;SDS011;48610;52.144;8.624;2023-05-07T14:07:58;8.85;;;6.32;;
62554;SDS011;48610;52.144;8.624;2023-05-07T14:10:59;10.10;;;6.00;;
62554;SDS011;48610;52.144;8.624;2023-05-07T14:14:00;9.35;;;6.55;;
62554;SDS011;48610;52.144;8.624;2023-05-07T14:17:00;9.77;;;5.63;;
62554;SDS011;48610;52.144;8.624;2023-05-07T14:20:01;8.60;;;6.20;;
62554;SDS011;48610;52.144;8.624;2023-05-07T14:23:01;9.75;;;6.47;;
62554;SDS011;48610;52.144;8.624;2023-05-07T14:26:02;8.23;;;5.75;;
62554;SDS011;48610;52.144;8.624;2023-05-07T14:29:03;10.68;;;6.68;;
62554;SDS011;48610;52.144;8.624;2023-05-07T14:32:03;9.07;;;6.03;;
62554;SDS011;48610;52.144;8.624;2023-05-07T14:35:04;9.25;;;6.00;;
62554;SDS011;48610;52.144;8.624;2023-05-07T14:38:05;8.45;;;5.68;;
62554;SDS011;48610;52.144;8.624;2023-05-07T14:41:05;10.38;;;5.88;;
62554;SDS011;48610;52.144;8.624;2023-05-07T14:44:06;14.00;;;6.45;;
62554;SDS011;48610;52.144;8.624;2023-05-07T14:47:07;10.38;;;6.38;;
62554;SDS011;48610;52.144;8.624;2023-05-07T14:50:07;10.00;;;6.80;;
62554;SDS011;48610;52.144;8.624;2023-05-07T14:53:08;10.63;;;6.85;;
62554;SDS011;48610;52.144;8.624;2023-05-07T14:56:09;11.73;;;7.40;;
62554;SDS011;48610;52.144;8.624;2023-05-07T14:59:09;8.70;;;6.30;;
62554;SDS011;48610;52.144;8.624;2023-05-07T15:02:11;9.57;;;6.40;;
62554;SDS011;48610;52.144;8.624;2023-05-07T15:05:11;9.60;;;6.90;;
62554;SDS011;48610;52.144;8.624;2023-05-07T15:08:14;11.32;;;7.65;;
62554;SDS011;48610;52.144;8.624;2023-05-07T15:11:15;10.88;;;6.85;;
62554;SDS011;48610;52.144;8.624;2023-05-07T15:14:16;10.27;;;7.68;;
62554;SDS011;48610;52.144;8.624;2023-05-07T15:17:16;11.85;;;7.50;;
62554;SDS011;48610;52.144;8.624;2023-05-07T15:20:17;10.63;;;6.97;;
62554;SDS011;48610;52.144;8.624;2023-05-07T15:23:18;11.65;;;7.22;;
62554;SDS011;48610;52.144;8.624;2023-05-07T15:26:18;11.35;;;6.88;;
62554;SDS011;48610;52.144;8.624;2023-05-07T15:29:20;11.32;;;7.45;;
62554;SDS011;48610;52.144;8.624;2023-05-07T15:32:21;12.40;;;7.32;;
62554;SDS011;48610;52.144;8.624;2023-05-07T15:35:22;12.63;;;7.00;;
62554;SDS011;48610;52.144;8.624;2023-05-07T15:38:23;10.18;;;7.47;;
62554;SDS011;48610;52.144;8.624;2023-05-07T15:41:24;12.27;;;7.22;;
62554;SDS011;48610;52.144;8.624;2023-05-07T15:44:25;9.02;;;6.78;;
62554;SDS011;48610;52.144;8.624;2023-05-07T15:47:28;10.82;;;7.45;;
62554;SDS011;48610;52.144;8.624;2023-05-07T15:50:33;10.93;;;7.35;;
62554;SDS011;48610;52.144;8.624;2023-05-07T15:53:34;11.45;;;7.82;;
62554;SDS011;48610;52.144;8.624;2023-05-07T15:56:35;10.70;;;7.80;;
62554;SDS011;48610;52.144;8.624;2023-05-07T15:59:35;10.95;;;7.95;;
62554;SDS011;48610;52.144;8.624;2023-05-07T16:02:36;11.85;;;7.00;;
62554;SDS011;48610;52.144;8.624;2023-05-07T16:05:37;10.50;;;7.18;;
62554;SDS011;48610;52.144;8.624;2023-05-07T16:08:37;10.93;;;7.82;;
62554;SDS011;48610;52.144;8.624;2023-05-07T16:11:39;10.02;;;7.18;;
62554;SDS011;48610;52.144;8.624;2023-05-07T16:14:40;14.68;;;8.00;;
62554;SDS011;48610;52.144;8.624;2023-05-07T16:17:40;11.70;;;7.65;;
62554;SDS011;48610;52.144;8.624;2023-05-07T16:20:41;11.02;;;7.50;;
62554;SDS011;48610;52.144;8.624;2023-05-07T16:23:42;12.38;;;7.57;;
62554;SDS011;48610;52.144;8.624;2023-05-07T16:26:43;12.25;;;7.95;;
62554;SDS011;48610;52.144;8.624;2023-05-07T16:29:44;12.18;;;8.20;;
62554;SDS011;48610;52.144;8.624;2023-05-07T16:32:44;12.55;;;8.52;;
62554;SDS011;48610;52.144;8.624;2023-05-07T16:35:49;11.73;;;7.90;;
62554;SDS011;48610;52.144;8.624;2023-05-07T16:38:53;11.02;;;7.93;;
62554;SDS011;48610;52.144;8.624;2023-05-07T16:41:54;12.27;;;8.48;;
62554;SDS011;48610;52.144;8.624;2023-05-07T16:44:55;9.52;;;6.57;;
62554;SDS011;48610;52.144;8.624;2023-05-07T16:47:55;11.57;;;7.82;;
62554;SDS011;48610;52.144;8.624;2023-05-07T16:50:57;11.20;;;7.30;;
62554;SDS011;48610;52.144;8.624;2023-05-07T16:53:58;11.88;;;7.13;;
62554;SDS011;48610;52.144;8.624;2023-05-07T16:56:58;12.43;;;8.10;;
62554;SDS011;48610;52.144;8.624;2023-05-07T16:59:59;10.35;;;7.35;;
62554;SDS011;48610;52.144;8.624;2023-05-07T17:02:59;14.88;;;8.32;;
62554;SDS011;48610;52.144;8.624;2023-05-07T17:06:01;13.48;;;8.48;;
62554;SDS011;48610;52.144;8.624;2023-05-07T17:09:02;11.07;;;8.25;;
62554;SDS011;48610;52.144;8.624;2023-05-07T17:12:03;12.95;;;8.40;;
62554;SDS011;48610;52.144;8.624;2023-05-07T17:15:04;12.68;;;8.57;;
62554;SDS011;48610;52.144;8.624;2023-05-07T17:18:05;15.13;;;8.48;;
62554;SDS011;48610;52.144;8.624;2023-05-07T17:21:05;15.00;;;8.95;;
62554;SDS011;48610;52.144;8.624;2023-05-07T17:24:06;12.88;;;8.88;;
62554;SDS011;48610;52.144;8.624;2023-05-07T17:27:07;15.98;;;8.57;;
62554;SDS011;48610;52.144;8.624;2023-05-07T17:30:07;10.82;;;8.25;;
62554;SDS011;48610;52.144;8.624;2023-05-07T17:33:08;11.85;;;8.52;;
62554;SDS011;48610;52.144;8.624;2023-05-07T17:36:09;10.65;;;8.77;;
62554;SDS011;48610;52.144;8.624;2023-05-07T17:39:09;11.55;;;9.13;;
62554;SDS011;48610;52.144;8.624;2023-05-07T17:42:10;13.40;;;8.80;;
62554;SDS011;48610;52.144;8.624;2023-05-07T17:45:11;13.35;;;9.00;;
62554;SDS011;48610;52.144;8.624;2023-05-07T17:48:11;13.90;;;9.00;;
62554;SDS011;48610;52.144;8.624;2023-05-07T17:51:12;14.48;;;9.18;;
62554;SDS011;48610;52.144;8.624;2023-05-07T17:54:12;12.77;;;8.85;;
62554;SDS011;48610;52.144;8.624;2023-05-07T17:57:13;12.50;;;9.30;;
62554;SDS011;48610;52.144;8.624;2023-05-07T18:00:14;13.25;;;9.45;;
62554;SDS011;48610;52.144;8.624;2023-05-07T18:03:15;13.32;;;9.07;;